Otter, MT

5:30 PM MST on February 26, 2015 (GMT -0700)
Sheridan County | Change Station
CLOSE
Current Station
Airport
Location: Sheridan,
Elevation: 3967 ft
Nearby Weather Stations

Elev 3967 ft 44.76 °N, 106.97 °W | Updated 37 minutes ago

Clear
Clear
9 °F
Feels Like -2 °F
N
7
Wind Variable Wind from SSE

Today
High -- | Low -- °F
--% Chance of Precip.
Yesterday
High -- | Low -- °F
Precip. -- in
6:47 AM 5:46 PM
Waxing Gibbous, 63% visible
Pressure 30.50 in
Visibility 10.0 miles
Clouds Scattered Clouds 2800 ft
Windchill -2 °F
Dew Point -2 °F
Humidity 61%
Rainfall 0.04 in
Snow Depth Not available.
UV 0 out of 12
Pollen .30 out of 12
Air Quality Not available.
Flu Activity Not available.
METAR KSHR 262353Z AUTO 16006KT 10SM SCT028 M13/M19 A3026 RMK AO2 SLP328 60000 T11281189 11111 21133 56010

More Conditions Fewer Conditions

Pressure 30.50 in
Visibility 10.0 miles
Clouds Scattered Clouds 2800 ft
Windchill -2 °F
Dew Point -2 °F
Humidity 61%
Rainfall 0.04 in
Snow Depth Not available.
UV 0 out of 12
Pollen .30 out of 12
Air Quality Not available.
Flu Activity Not available.
METAR KSHR 262353Z AUTO 16006KT 10SM SCT028 M13/M19 A3026 RMK AO2 SLP328 60000 T11281189 11111 21133 56010

More Conditions Fewer Conditions

10-Day Weather Forecast

Almanac

Astronomy

Feb. 26, 2015 Rise Set
Actual Time
Civil Twilight
Nautical Twilight
Astronomical Twilight
Moon
Length of Visible Light
Length of Day
Tomorrow will be .
, % of the Moon is Illuminated

Today's Extremes

State Highs State Lows

Community

WunderPhotos

Upload Photos

1,800,545 photos uploaded!

WunderBlogs® & News

Nearby

Air Quality

  Air Quality AQ Index Pollutant
Not available.

Snow Depth

Station Depth Elevation

Earthquake Activity

City Distance Mag. Time & Date
Minimum magnitude displayed is 2.5.

Coastal Water Temperatures

Place Temperature

Nearby Weather Stations